createdAt,value
2022-12-11T00:00:43.804Z,78.55
2022-12-11T00:03:15.650Z,78.51
2022-12-11T00:05:43.298Z,78.31
2022-12-11T00:08:10.161Z,78.44
2022-12-11T00:10:38.042Z,78.34
2022-12-11T00:13:05.324Z,78.75
2022-12-11T00:15:33.233Z,79.05
2022-12-11T00:17:59.787Z,78.91
2022-12-11T00:20:26.340Z,78.84
2022-12-11T00:22:52.876Z,79.28
2022-12-11T00:25:19.370Z,79.20
2022-12-11T00:27:46.228Z,79.39
2022-12-11T00:30:13.592Z,78.83
2022-12-11T00:32:41.512Z,79.70
2022-12-11T00:35:09.285Z,79.38
2022-12-11T00:37:36.067Z,79.58
2022-12-11T00:40:02.677Z,79.76
2022-12-11T00:42:29.235Z,79.46
2022-12-11T00:44:55.723Z,79.94
2022-12-11T00:47:22.276Z,79.86
2022-12-11T00:49:50.390Z,79.98
2022-12-11T00:52:16.965Z,79.71
2022-12-11T00:54:43.456Z,80.12
2022-12-11T00:57:09.977Z,80.12
2022-12-11T00:59:36.508Z,79.53
2022-12-11T01:02:03.156Z,79.97
2022-12-11T01:04:29.716Z,79.76
2022-12-11T01:06:57.655Z,80.56
2022-12-11T01:09:24.175Z,80.35
2022-12-11T01:11:50.733Z,80.14
2022-12-11T01:14:17.289Z,80.12
2022-12-11T01:16:43.982Z,80.28
2022-12-11T01:19:10.558Z,80.54
2022-12-11T01:21:37.122Z,80.16
2022-12-11T01:24:05.744Z,80.11
2022-12-11T01:26:32.261Z,79.99
2022-12-11T01:28:58.813Z,80.48
2022-12-11T01:31:25.461Z,80.11
2022-12-11T01:33:54.095Z,80.28
2022-12-11T01:36:21.946Z,79.90
2022-12-11T01:38:49.583Z,80.63
2022-12-11T01:41:18.228Z,79.91
2022-12-11T01:43:59.159Z,80.29
2022-12-11T01:46:26.570Z,80.08
2022-12-11T01:48:54.113Z,80.47
2022-12-11T01:51:21.065Z,80.09
2022-12-11T01:53:53.562Z,80.36
2022-12-11T01:56:21.633Z,80.22
2022-12-11T01:58:53.783Z,80.21
2022-12-11T02:01:25.325Z,79.78
2022-12-11T02:03:53.414Z,80.38
2022-12-11T02:06:35.406Z,80.21
2022-12-11T02:09:03.226Z,79.88
2022-12-11T02:11:39.242Z,79.65
2022-12-11T02:14:10.897Z,80.08
2022-12-11T02:16:45.623Z,79.95
2022-12-11T02:19:30.813Z,80.45
2022-12-11T02:22:01.374Z,80.02
2022-12-11T02:24:40.818Z,80.04
2022-12-11T02:27:28.564Z,79.65
2022-12-11T02:30:01.915Z,79.84
2022-12-11T02:32:32.567Z,80.06
2022-12-11T02:35:06.821Z,79.93
2022-12-11T02:37:37.622Z,79.67
2022-12-11T02:40:07.631Z,79.97
2022-12-11T02:42:36.532Z,80.08
2022-12-11T02:45:07.350Z,79.66
2022-12-11T02:47:34.144Z,79.58
2022-12-11T02:50:04.186Z,79.55
2022-12-11T02:52:32.307Z,79.52
2022-12-11T02:55:00.788Z,79.57
2022-12-11T02:57:33.694Z,79.77
2022-12-11T03:00:00.312Z,79.51
2022-12-11T03:02:28.336Z,79.32
2022-12-11T03:04:54.986Z,79.41
2022-12-11T03:07:25.798Z,79.58
2022-12-11T03:09:52.944Z,79.78
2022-12-11T03:12:24.062Z,79.80
2022-12-11T03:14:50.895Z,79.76
2022-12-11T03:17:21.061Z,79.60
2022-12-11T03:19:57.415Z,80.05
2022-12-11T03:22:31.227Z,80.17
2022-12-11T03:25:02.508Z,80.06
2022-12-11T03:27:36.129Z,80.16
2022-12-11T03:30:06.524Z,80.19
2022-12-11T03:32:39.645Z,80.27
2022-12-11T03:35:14.527Z,80.65
2022-12-11T03:37:43.441Z,80.32
2022-12-11T03:40:14.453Z,80.48
2022-12-11T03:42:42.597Z,80.67
2022-12-11T03:45:10.794Z,80.06
2022-12-11T03:47:39.734Z,80.37
2022-12-11T03:50:10.842Z,80.55
2022-12-11T03:52:45.345Z,80.55
2022-12-11T03:55:13.851Z,80.74
2022-12-11T03:57:40.385Z,80.88
2022-12-11T04:00:10.829Z,80.65
2022-12-11T04:02:37.362Z,80.76
2022-12-11T04:05:04.391Z,80.96
2022-12-11T04:07:32.322Z,80.55
2022-12-11T04:10:00.241Z,80.91
2022-12-11T04:12:26.774Z,81.01
2022-12-11T04:14:53.302Z,80.68
2022-12-11T04:17:20.055Z,81.03
2022-12-11T04:19:46.547Z,80.81
2022-12-11T04:22:14.571Z,80.64
2022-12-11T04:24:42.582Z,81.22
2022-12-11T04:27:09.110Z,80.83
2022-12-11T04:29:35.678Z,80.82
2022-12-11T04:32:02.240Z,80.82
2022-12-11T04:34:29.031Z,81.60
2022-12-11T04:36:55.646Z,81.42
2022-12-11T04:39:22.178Z,81.61
2022-12-11T04:41:50.034Z,81.51
2022-12-11T04:44:16.614Z,81.68
2022-12-11T04:46:43.207Z,81.43
2022-12-11T04:49:09.888Z,81.34
2022-12-11T04:51:36.470Z,81.33
2022-12-11T04:54:03.062Z,81.60
2022-12-11T04:56:29.590Z,81.44
2022-12-11T04:58:57.417Z,81.68
2022-12-11T05:01:24.100Z,81.09
2022-12-11T05:03:50.712Z,81.29
2022-12-11T05:06:17.573Z,81.65
2022-12-11T05:08:44.435Z,81.28
2022-12-11T05:11:12.824Z,81.40
2022-12-11T05:13:39.422Z,82.04
2022-12-11T05:16:09.689Z,81.83
2022-12-11T05:18:36.392Z,81.40
2022-12-11T05:21:05.435Z,82.12
2022-12-11T05:23:32.785Z,82.27
2022-12-11T05:26:01.260Z,82.12
2022-12-11T05:28:31.818Z,81.73
2022-12-11T05:31:00.395Z,82.03
2022-12-11T05:33:28.880Z,81.93
2022-12-11T05:35:55.446Z,82.12
2022-12-11T05:38:22.007Z,81.99
2022-12-11T05:40:55.836Z,82.35
2022-12-11T05:43:22.366Z,82.31
2022-12-11T05:45:48.892Z,81.79
2022-12-11T05:48:15.453Z,82.36
2022-12-11T05:50:43.319Z,82.41
2022-12-11T05:53:09.795Z,81.84
2022-12-11T05:55:36.355Z,82.26
2022-12-11T05:58:02.942Z,81.86
2022-12-11T06:00:35.710Z,82.00
2022-12-11T06:03:02.909Z,82.11
2022-12-11T06:05:29.516Z,81.90
2022-12-11T06:07:57.424Z,81.89
2022-12-11T06:10:24.005Z,82.18
2022-12-11T06:12:50.547Z,82.35
2022-12-11T06:15:17.186Z,81.95
2022-12-11T06:17:43.720Z,82.06
2022-12-11T06:20:11.020Z,81.82
2022-12-11T06:22:37.543Z,81.79
2022-12-11T06:25:06.776Z,82.15
2022-12-11T06:27:33.551Z,82.14
2022-12-11T06:30:00.149Z,82.21
2022-12-11T06:32:26.844Z,82.27
2022-12-11T06:34:53.439Z,81.99
2022-12-11T06:37:19.936Z,82.43
2022-12-11T06:39:46.442Z,82.72
2022-12-11T06:42:14.339Z,81.95
2022-12-11T06:44:40.834Z,82.47
2022-12-11T06:47:07.354Z,81.88
2022-12-11T06:49:33.868Z,82.47
2022-12-11T06:52:00.389Z,82.33
2022-12-11T06:54:27.332Z,82.57
2022-12-11T06:56:53.812Z,82.39
2022-12-11T06:59:21.780Z,82.36
2022-12-11T07:01:48.374Z,82.58
2022-12-11T07:04:14.943Z,83.14
2022-12-11T07:06:41.508Z,82.84
2022-12-11T07:09:07.967Z,82.65
2022-12-11T07:11:34.540Z,82.67
2022-12-11T07:14:01.141Z,81.92
2022-12-11T07:16:29.070Z,82.34
2022-12-11T07:18:55.700Z,82.46
2022-12-11T07:21:22.328Z,82.28
2022-12-11T07:23:50.041Z,82.34
2022-12-11T07:26:18.447Z,82.50
2022-12-11T07:28:45.756Z,81.19
2022-12-11T07:31:14.992Z,81.25
2022-12-11T07:33:43.134Z,80.41
2022-12-11T07:36:12.082Z,80.38
2022-12-11T07:38:39.138Z,80.21
2022-12-11T07:41:07.375Z,79.77
2022-12-11T07:43:34.420Z,79.83
2022-12-11T07:46:01.299Z,80.13
2022-12-11T07:48:27.840Z,79.80
2022-12-11T07:50:55.766Z,80.12
2022-12-11T07:53:22.262Z,79.78
2022-12-11T07:55:48.779Z,80.21
2022-12-11T07:58:15.316Z,79.73
2022-12-11T08:00:44.021Z,79.13
2022-12-11T08:03:10.583Z,79.01
2022-12-11T08:05:37.114Z,79.08
2022-12-11T08:08:05.169Z,77.13
2022-12-11T08:10:31.881Z,77.37
2022-12-11T08:12:58.432Z,77.13
2022-12-11T08:15:24.914Z,77.01
2022-12-11T08:17:51.487Z,76.78
2022-12-11T08:20:17.995Z,77.34
2022-12-11T08:22:44.526Z,77.18
2022-12-11T08:25:12.706Z,77.02
2022-12-11T08:27:39.466Z,76.60
2022-12-11T08:30:07.204Z,76.30
2022-12-11T08:32:34.370Z,76.21
2022-12-11T08:35:01.296Z,76.06
2022-12-11T08:37:27.899Z,75.76
2022-12-11T08:39:54.437Z,75.96
2022-12-11T08:42:22.339Z,75.94
2022-12-11T08:44:48.925Z,75.26
2022-12-11T08:47:15.505Z,75.81
2022-12-11T08:49:42.094Z,75.60
2022-12-11T08:52:08.749Z,75.84
2022-12-11T08:54:36.672Z,75.93
2022-12-11T08:57:03.307Z,75.82
2022-12-11T08:59:31.387Z,75.58
2022-12-11T09:01:58.055Z,75.44
2022-12-11T09:04:24.634Z,75.98
2022-12-11T09:06:51.168Z,75.66
2022-12-11T09:09:17.935Z,75.75
2022-12-11T09:11:44.599Z,76.23
2022-12-11T09:14:11.144Z,75.63
2022-12-11T09:16:40.384Z,75.63
2022-12-11T09:19:09.433Z,75.54
2022-12-11T09:21:35.983Z,74.94
2022-12-11T09:24:02.583Z,75.23
2022-12-11T09:26:30.129Z,75.05
2022-12-11T09:28:57.327Z,75.32
2022-12-11T09:31:25.780Z,75.36
2022-12-11T09:33:55.709Z,75.41
2022-12-11T09:36:22.932Z,75.46
2022-12-11T09:38:49.531Z,75.54
2022-12-11T09:41:28.991Z,75.38
2022-12-11T09:44:02.446Z,75.47
2022-12-11T09:46:33.811Z,75.16
2022-12-11T09:49:03.761Z,75.78
2022-12-11T09:51:39.328Z,75.74
2022-12-11T09:54:06.298Z,75.63
2022-12-11T09:56:35.992Z,75.32
2022-12-11T09:59:13.040Z,75.46
2022-12-11T10:01:47.022Z,75.76
2022-12-11T10:04:30.301Z,75.00
2022-12-11T10:07:06.392Z,74.85
2022-12-11T10:09:39.199Z,75.34
2022-12-11T10:12:19.206Z,75.15
2022-12-11T10:15:13.606Z,75.27
2022-12-11T10:17:42.722Z,75.49
2022-12-11T10:20:20.368Z,75.51
2022-12-11T10:22:48.113Z,75.76
2022-12-11T10:25:20.625Z,75.25
2022-12-11T10:27:47.317Z,75.39
2022-12-11T10:30:16.525Z,75.38
2022-12-11T10:32:50.323Z,75.21
2022-12-11T10:35:27.835Z,75.73
2022-12-11T10:37:57.408Z,75.59
2022-12-11T10:40:25.829Z,75.15
2022-12-11T10:42:53.472Z,75.28
2022-12-11T10:45:20.548Z,75.15
2022-12-11T10:47:47.036Z,74.52
2022-12-11T10:50:24.621Z,74.83
2022-12-11T10:52:51.567Z,74.25
2022-12-11T10:55:21.510Z,74.87
2022-12-11T10:57:57.020Z,74.58
2022-12-11T11:00:32.879Z,74.71
2022-12-11T11:03:01.251Z,75.05
2022-12-11T11:05:31.770Z,76.29
2022-12-11T11:08:19.946Z,76.12
2022-12-11T11:10:51.661Z,76.18
2022-12-11T11:13:21.142Z,76.50
2022-12-11T11:15:48.414Z,75.79
2022-12-11T11:18:23.542Z,75.99
2022-12-11T11:20:51.606Z,75.89
2022-12-11T11:23:20.054Z,75.65
2022-12-11T11:25:51.138Z,75.43
2022-12-11T11:28:20.322Z,75.40
2022-12-11T11:30:57.984Z,75.32
2022-12-11T11:33:25.238Z,74.90
2022-12-11T11:35:54.383Z,75.38
2022-12-11T11:38:25.179Z,75.14
2022-12-11T11:41:04.208Z,75.11
2022-12-11T11:43:38.617Z,74.66
2022-12-11T11:46:12.174Z,75.04
2022-12-11T11:48:46.605Z,74.81
2022-12-11T11:51:19.905Z,75.26
2022-12-11T11:53:48.273Z,75.08
2022-12-11T11:56:20.064Z,75.34
2022-12-11T11:58:53.795Z,75.13
2022-12-11T12:01:20.924Z,74.64
2022-12-11T12:03:49.189Z,75.09
2022-12-11T12:06:28.668Z,75.30
2022-12-11T12:09:01.148Z,75.40
2022-12-11T12:11:34.924Z,75.84
2022-12-11T12:14:43.775Z,74.85
2022-12-11T12:17:12.499Z,74.91
2022-12-11T12:19:49.720Z,75.59
2022-12-11T12:22:39.180Z,75.03
2022-12-11T12:25:16.459Z,74.89
2022-12-11T12:27:52.833Z,74.63
2022-12-11T12:30:23.462Z,74.48
2022-12-11T12:33:02.751Z,74.24
2022-12-11T12:35:35.863Z,74.18
2022-12-11T12:38:12.819Z,74.81
2022-12-11T12:40:50.354Z,74.74
2022-12-11T12:43:36.582Z,74.79
2022-12-11T12:46:14.417Z,74.43
2022-12-11T12:48:41.578Z,74.20
2022-12-11T12:51:13.447Z,74.49
2022-12-11T12:53:45.733Z,74.58
2022-12-11T12:56:12.902Z,74.57
2022-12-11T12:58:44.665Z,74.51
2022-12-11T13:01:17.168Z,73.96
2022-12-11T13:03:54.205Z,74.54
2022-12-11T13:06:35.648Z,74.83
2022-12-11T13:09:17.280Z,75.12
2022-12-11T13:11:45.180Z,75.41
2022-12-11T13:14:26.635Z,75.01
2022-12-11T13:17:04.718Z,75.00
2022-12-11T13:19:37.634Z,75.18
2022-12-11T13:22:21.702Z,75.25
2022-12-11T13:24:57.477Z,75.36
2022-12-11T13:27:25.841Z,75.21
2022-12-11T13:30:04.221Z,75.47
2022-12-11T13:32:31.355Z,75.14
2022-12-11T13:35:00.148Z,75.41
2022-12-11T13:37:31.306Z,75.39
2022-12-11T13:39:59.816Z,75.39
2022-12-11T13:42:30.476Z,75.31
2022-12-11T13:44:57.598Z,75.46
2022-12-11T13:47:24.976Z,74.94
2022-12-11T13:49:55.401Z,75.76
2022-12-11T13:52:24.081Z,75.64
2022-12-11T13:54:52.711Z,75.49
2022-12-11T13:57:23.108Z,75.90
2022-12-11T13:59:51.403Z,75.57
2022-12-11T14:02:21.270Z,75.92
2022-12-11T14:04:49.656Z,76.25
2022-12-11T14:07:20.608Z,75.55
2022-12-11T14:09:47.202Z,75.95
2022-12-11T14:12:21.483Z,75.69
2022-12-11T14:14:51.403Z,75.34
2022-12-11T14:17:23.943Z,75.94
2022-12-11T14:19:50.599Z,75.63
2022-12-11T14:22:19.720Z,76.53
2022-12-11T14:24:51.298Z,76.38
2022-12-11T14:27:18.478Z,76.34
2022-12-11T14:29:47.019Z,76.46
2022-12-11T14:32:20.160Z,76.44
2022-12-11T14:34:49.573Z,76.50
2022-12-11T14:37:20.151Z,76.85
2022-12-11T14:39:54.895Z,76.86
2022-12-11T14:42:24.942Z,77.22
2022-12-11T14:44:56.715Z,77.12
2022-12-11T14:47:27.162Z,77.00
2022-12-11T14:49:58.193Z,77.30
2022-12-11T14:52:30.324Z,77.32
2022-12-11T14:55:02.906Z,77.91
2022-12-11T14:57:33.253Z,77.25
2022-12-11T15:00:02.372Z,77.61
2022-12-11T15:02:31.957Z,77.81
2022-12-11T15:05:14.595Z,77.60
2022-12-11T15:07:43.209Z,77.63
2022-12-11T15:10:22.877Z,78.20
2022-12-11T15:12:49.882Z,78.01
2022-12-11T15:15:19.014Z,78.34
2022-12-11T15:17:52.545Z,77.73
2022-12-11T15:20:26.842Z,78.28
2022-12-11T15:22:54.700Z,78.42
2022-12-11T15:25:24.012Z,78.83
2022-12-11T15:27:52.807Z,78.71
2022-12-11T15:30:29.904Z,78.72
2022-12-11T15:33:19.394Z,78.90
2022-12-11T15:36:00.636Z,78.67
2022-12-11T15:38:35.992Z,78.91
2022-12-11T15:41:03.936Z,78.84
2022-12-11T15:43:34.473Z,78.89
2022-12-11T15:46:03.289Z,78.58
2022-12-11T15:48:29.943Z,78.66
2022-12-11T15:50:56.465Z,78.69
2022-12-11T15:53:23.082Z,79.20
2022-12-11T15:55:49.992Z,78.83
2022-12-11T15:58:19.763Z,79.14
2022-12-11T16:00:46.350Z,79.15
2022-12-11T16:03:16.484Z,79.01
2022-12-11T16:05:43.539Z,78.93
2022-12-11T16:08:13.656Z,79.33
2022-12-11T16:10:40.331Z,79.57
2022-12-11T16:13:06.832Z,79.53
2022-12-11T16:15:33.511Z,79.34
2022-12-11T16:18:01.572Z,79.80
2022-12-11T16:20:29.986Z,79.50
2022-12-11T16:22:57.064Z,79.68
2022-12-11T16:25:23.675Z,79.97
2022-12-11T16:27:50.393Z,80.25
2022-12-11T16:30:17.243Z,80.36
2022-12-11T16:32:43.811Z,80.04
2022-12-11T16:35:10.547Z,79.85
2022-12-11T16:37:38.750Z,80.59
2022-12-11T16:40:06.320Z,80.74
2022-12-11T16:42:32.985Z,80.44
2022-12-11T16:45:04.391Z,80.36
2022-12-11T16:47:30.942Z,80.78
2022-12-11T16:49:58.135Z,80.43
2022-12-11T16:52:24.739Z,80.58
2022-12-11T16:54:52.658Z,80.75
2022-12-11T16:57:19.265Z,80.77
2022-12-11T16:59:47.248Z,81.08
2022-12-11T17:02:13.981Z,81.42
2022-12-11T17:04:40.882Z,81.17
2022-12-11T17:07:07.679Z,80.81
2022-12-11T17:09:34.451Z,80.96
2022-12-11T17:12:02.636Z,81.11
2022-12-11T17:14:29.201Z,81.51
2022-12-11T17:16:57.071Z,81.42
2022-12-11T17:19:23.649Z,81.60
2022-12-11T17:21:51.770Z,81.74
2022-12-11T17:24:18.557Z,81.78
2022-12-11T17:26:45.130Z,82.63
2022-12-11T17:29:13.597Z,82.48
2022-12-11T17:31:40.657Z,82.58
2022-12-11T17:34:07.751Z,82.65
2022-12-11T17:36:34.477Z,82.99
2022-12-11T17:39:01.010Z,83.43
2022-12-11T17:41:27.511Z,83.42
2022-12-11T17:43:54.151Z,83.32
2022-12-11T17:46:22.444Z,83.83
2022-12-11T17:48:49.020Z,83.64
2022-12-11T17:51:17.287Z,83.75
2022-12-11T17:53:43.761Z,83.85
2022-12-11T17:56:10.500Z,83.62
2022-12-11T17:58:36.995Z,83.64
2022-12-11T18:01:07.540Z,83.73
2022-12-11T18:03:36.644Z,84.08
2022-12-11T18:06:05.379Z,83.75
2022-12-11T18:08:32.397Z,83.97
2022-12-11T18:11:05.024Z,83.62
2022-12-11T18:13:31.761Z,83.26
2022-12-11T18:16:02.420Z,83.45
2022-12-11T18:18:29.068Z,83.52
2022-12-11T18:20:57.259Z,83.17
2022-12-11T18:23:23.956Z,83.49
2022-12-11T18:25:50.584Z,83.26
2022-12-11T18:28:17.200Z,83.30
2022-12-11T18:30:43.907Z,83.83
2022-12-11T18:33:10.616Z,83.74
2022-12-11T18:35:37.321Z,83.01
2022-12-11T18:38:05.237Z,83.84
2022-12-11T18:40:31.915Z,83.47
2022-12-11T18:42:58.517Z,83.48
2022-12-11T18:45:25.112Z,83.65
2022-12-11T18:47:51.827Z,83.48
2022-12-11T18:50:18.610Z,83.64
2022-12-11T18:52:45.244Z,83.53
2022-12-11T18:55:13.333Z,83.13
2022-12-11T18:57:40.307Z,83.59
2022-12-11T19:00:08.222Z,83.02
2022-12-11T19:02:35.320Z,83.49
2022-12-11T19:05:02.042Z,83.31
2022-12-11T19:07:28.603Z,82.93
2022-12-11T19:09:55.234Z,82.89
2022-12-11T19:12:23.095Z,83.04
2022-12-11T19:14:49.618Z,82.97
2022-12-11T19:17:16.160Z,83.55
2022-12-11T19:19:42.724Z,83.17
2022-12-11T19:22:09.289Z,83.12
2022-12-11T19:24:35.937Z,83.01
2022-12-11T19:27:02.465Z,83.09
2022-12-11T19:29:31.227Z,83.45
2022-12-11T19:31:58.943Z,83.40
2022-12-11T19:34:25.441Z,83.24
2022-12-11T19:36:51.982Z,83.31
2022-12-11T19:39:18.594Z,83.09
2022-12-11T19:41:45.893Z,83.87
2022-12-11T19:44:12.523Z,83.36
2022-12-11T19:46:40.975Z,83.27
2022-12-11T19:49:07.695Z,83.45
2022-12-11T19:51:36.648Z,83.53
2022-12-11T19:54:04.143Z,83.93
2022-12-11T19:56:31.646Z,83.98
2022-12-11T19:58:58.503Z,83.51
2022-12-11T20:01:27.549Z,83.58
2022-12-11T20:03:56.968Z,83.86
2022-12-11T20:06:24.159Z,84.13
2022-12-11T20:08:50.871Z,83.78
2022-12-11T20:11:19.027Z,84.18
2022-12-11T20:13:46.185Z,84.24
2022-12-11T20:16:13.448Z,84.42
2022-12-11T20:18:40.068Z,84.49
2022-12-11T20:21:09.530Z,85.28
2022-12-11T20:23:36.081Z,85.54
2022-12-11T20:26:07.015Z,84.92
2022-12-11T20:28:33.548Z,85.19
2022-12-11T20:31:04.090Z,85.84
2022-12-11T20:33:30.601Z,85.85
2022-12-11T20:35:57.310Z,85.42
2022-12-11T20:38:27.748Z,85.50
2022-12-11T20:40:57.827Z,85.89
2022-12-11T20:43:24.340Z,85.34
2022-12-11T20:45:50.989Z,85.93
2022-12-11T20:48:17.876Z,85.37
2022-12-11T20:50:44.467Z,85.41
2022-12-11T20:53:10.971Z,85.49
2022-12-11T20:55:40.714Z,85.05
2022-12-11T20:58:07.478Z,85.13
2022-12-11T21:00:35.213Z,85.39
2022-12-11T21:03:01.792Z,85.10
2022-12-11T21:05:28.423Z,85.06
2022-12-11T21:07:55.437Z,85.37
2022-12-11T21:10:22.642Z,85.43
2022-12-11T21:12:50.568Z,85.30
2022-12-11T21:15:17.146Z,85.31
2022-12-11T21:17:43.773Z,85.56
2022-12-11T21:20:10.866Z,84.98
2022-12-11T21:22:37.551Z,85.23
2022-12-11T21:25:04.611Z,85.78
2022-12-11T21:27:31.149Z,85.52
2022-12-11T21:29:59.120Z,85.25
2022-12-11T21:32:25.731Z,85.26
2022-12-11T21:34:52.278Z,85.62
2022-12-11T21:37:18.806Z,85.43
2022-12-11T21:39:45.474Z,85.70
2022-12-11T21:42:11.955Z,85.76
2022-12-11T21:45:31.410Z,85.97
2022-12-11T21:47:26.372Z,85.61
2022-12-11T21:49:52.936Z,85.72
2022-12-11T21:52:19.632Z,85.75
2022-12-11T21:54:46.166Z,86.04
2022-12-11T21:57:12.678Z,85.44
2022-12-11T21:59:39.197Z,86.05
2022-12-11T22:02:05.862Z,85.68
2022-12-11T22:04:33.746Z,86.04
2022-12-11T22:07:00.226Z,85.85
2022-12-11T22:09:26.837Z,85.70
2022-12-11T22:11:58.105Z,86.09
2022-12-11T22:14:25.751Z,85.47
2022-12-11T22:16:52.281Z,86.07
2022-12-11T22:19:18.860Z,85.29
2022-12-11T22:21:46.937Z,85.81
2022-12-11T22:24:13.546Z,85.76
2022-12-11T22:26:40.272Z,85.59
2022-12-11T22:29:07.247Z,85.56
2022-12-11T22:31:33.887Z,85.62
2022-12-11T22:34:00.576Z,86.14
2022-12-11T22:36:27.281Z,85.71
2022-12-11T22:38:55.443Z,85.96
2022-12-11T22:41:24.750Z,85.44
2022-12-11T22:43:51.890Z,85.57
2022-12-11T22:46:19.848Z,85.82
2022-12-11T22:48:46.429Z,85.63
2022-12-11T22:51:13.039Z,86.03
2022-12-11T22:53:39.580Z,85.62
2022-12-11T22:56:08.966Z,85.30
2022-12-11T22:58:35.806Z,86.22
2022-12-11T23:01:03.434Z,85.60
2022-12-11T23:03:30.039Z,86.29
2022-12-11T23:05:58.792Z,86.26
2022-12-11T23:08:28.601Z,85.72
2022-12-11T23:10:55.242Z,86.13
2022-12-11T23:13:23.188Z,85.67
2022-12-11T23:15:49.696Z,85.92
2022-12-11T23:18:16.225Z,86.28
2022-12-11T23:20:42.753Z,85.80
2022-12-11T23:23:09.364Z,85.85
2022-12-11T23:25:35.877Z,86.28
2022-12-11T23:28:02.405Z,85.84
2022-12-11T23:30:30.504Z,86.13
2022-12-11T23:32:57.102Z,85.53
2022-12-11T23:35:23.596Z,86.22
2022-12-11T23:37:50.110Z,86.09
2022-12-11T23:40:16.798Z,85.52
2022-12-11T23:42:43.289Z,85.61
2022-12-11T23:45:10.266Z,86.14
2022-12-11T23:47:38.317Z,85.68
2022-12-11T23:50:05.602Z,85.99
2022-12-11T23:52:32.105Z,85.96
2022-12-11T23:54:58.606Z,86.15
2022-12-11T23:57:25.137Z,85.65
2022-12-11T23:59:51.705Z,85.87
